Time;durP1;ratioP1;P1;durP2;ratioP2;P2;SDS_P1;SDS_P2;PMS_P1;PMS_P2;Temp;Humidity;BMP_temperature;BMP_pressure;BME280_temperature;BME280_humidity;BME280_pressure;Samples;Min_cycle;Max_cycle;Signal;HPM_P1;HPM_P2
2022/01/03 00:00:32;;;;;;;6.40;3.35;;;;;;;10.76;67.02;99623.50;2136404;83;29681;-59
2022/01/03 00:03:37;;;;;;;5.87;3.08;;;;;;;10.73;67.11;99616.52;2103672;84;27691;-55
2022/01/03 00:06:39;;;;;;;6.03;3.00;;;;;;;10.68;67.00;99605.22;2103964;84;28646;-56
2022/01/03 00:09:41;;;;;;;5.00;2.52;;;;;;;10.66;67.00;99609.81;2103951;84;31190;-55
2022/01/03 00:12:45;;;;;;;7.20;3.00;;;;;;;10.62;67.04;99610.48;2146989;82;34468;-56
2022/01/03 00:15:47;;;;;;;4.70;2.70;;;;;;;10.61;66.99;99612.77;2166172;82;29414;-55
2022/01/03 00:18:49;;;;;;;4.12;2.62;;;;;;;10.61;67.10;99609.22;2164431;82;27732;-59
2022/01/03 00:21:54;;;;;;;6.05;2.72;;;;;;;10.57;67.01;99605.03;2157741;82;29686;-58
2022/01/03 00:24:59;;;;;;;;;;;;;;;10.55;66.92;99605.59;2168701;82;32217;-58
2022/01/03 00:28:23;;;;;;;4.87;2.87;;;;;;;10.51;67.03;99603.55;2164763;82;34132;-58
2022/01/03 00:31:35;;;;;;;10.78;3.52;;;;;;;10.45;67.07;99604.80;2143435;83;29351;-59
2022/01/03 00:34:39;;;;;;;7.05;3.40;;;;;;;10.43;67.04;99602.68;2144274;82;27602;-58
2022/01/03 00:37:44;;;;;;;4.17;2.62;;;;;;;10.40;67.14;99605.57;2144153;83;29058;-58
2022/01/03 00:40:46;;;;;;;4.62;2.55;;;;;;;10.36;67.11;99611.14;2161144;82;30464;-58
2022/01/03 00:43:51;;;;;;;5.25;3.17;;;;;;;10.31;67.10;99613.64;2166054;82;33855;-58
2022/01/03 00:46:55;;;;;;;6.05;3.40;;;;;;;10.29;67.20;99619.56;2165802;82;28767;-56
2022/01/03 00:49:57;;;;;;;5.92;3.10;;;;;;;10.29;67.31;99618.23;2158846;82;27771;-57
2022/01/03 00:52:59;;;;;;;6.33;2.75;;;;;;;10.31;67.22;99615.44;2150463;82;29862;-58
2022/01/03 00:56:17;;;;;;;4.60;2.33;;;;;;;10.31;67.35;99610.97;2147365;81;32454;-55
2022/01/03 00:59:32;;;;;;;4.42;2.90;;;;;;;10.30;67.33;99606.56;2138308;82;33528;-53
2022/01/03 01:02:39;;;;;;;7.28;3.15;;;;;;;10.30;67.25;99597.20;2117860;83;29344;-57
2022/01/03 01:05:43;;;;;;;7.08;2.72;;;;;;;10.29;67.24;99598.61;2117746;84;27686;-57
2022/01/03 01:08:45;;;;;;;4.58;2.98;;;;;;;10.29;67.33;99586.56;2119075;82;28671;-59
2022/01/03 01:11:52;;;;;;;4.97;2.52;;;;;;;10.27;67.43;99585.78;2144410;82;32312;-58
2022/01/03 01:14:54;;;;;;;5.25;2.83;;;;;;;10.27;67.43;99581.31;2144901;83;32975;-59
2022/01/03 01:17:57;;;;;;;7.12;3.72;;;;;;;10.28;67.45;99585.71;2145051;82;30444;-59
2022/01/03 01:21:00;;;;;;;6.50;3.02;;;;;;;10.28;67.44;99582.16;2123635;82;28088;-59
2022/01/03 01:24:04;;;;;;;6.15;2.75;;;;;;;10.27;67.44;99579.09;2117501;84;28711;-60
2022/01/03 01:30:28;;;;;;;5.85;3.55;;;;;;;10.31;67.44;99573.95;2133679;83;33922;-57
2022/01/03 01:33:32;;;;;;;4.62;3.10;;;;;;;10.31;67.42;99576.16;2144622;82;30179;-59
2022/01/03 01:36:34;;;;;;;6.35;3.00;;;;;;;10.32;67.35;99573.87;2145413;83;27635;-60
2022/01/03 01:39:37;;;;;;;5.72;3.40;;;;;;;10.32;67.39;99563.16;2136816;82;28686;-60
2022/01/03 01:42:46;;;;;;;6.90;3.15;;;;;;;10.33;67.28;99560.88;2117187;84;32408;-60
2022/01/03 01:45:49;;;;;;;6.20;2.75;;;;;;;10.34;67.29;99549.67;2117280;84;33764;-60
2022/01/03 01:48:53;;;;;;;5.28;3.00;;;;;;;10.34;67.27;99545.66;2118400;83;29345;-58
2022/01/03 01:51:59;;;;;;;5.90;3.30;;;;;;;10.31;67.24;99541.36;2144993;83;27744;-59
2022/01/03 01:55:06;;;;;;;7.50;3.02;;;;;;;10.30;67.26;99538.30;2144396;82;29086;-60
2022/01/03 01:58:22;;;;;;;4.83;3.30;;;;;;;10.27;67.16;99525.09;2144653;82;31064;-59
2022/01/03 02:01:39;;;;;;;5.15;3.00;;;;;;;10.19;67.07;99513.52;2117538;82;33898;-60
2022/01/03 02:04:55;;;;;;;5.40;3.35;;;;;;;10.11;67.06;99509.09;2058078;86;30525;-59
2022/01/03 02:08:31;;;;;;;6.78;3.58;;;;;;;9.99;66.94;99505.36;2029690;87;27632;-57
2022/01/03 02:11:50;;;;;;;7.20;3.37;;;;;;;9.86;66.99;99498.55;2094571;84;30007;-60
2022/01/03 02:14:57;;;;;;;8.23;4.37;;;;;;;9.72;66.98;99496.67;2097681;84;31119;-59
2022/01/03 02:17:56;;;;;;;7.30;4.13;;;;;;;9.60;67.06;99497.41;2097780;84;33414;-59
2022/01/03 02:20:59;;;;;;;7.67;4.50;;;;;;;9.50;67.14;99494.41;2074956;84;30132;-59
2022/01/03 02:24:02;;;;;;;9.20;4.90;;;;;;;9.41;67.28;99491.80;2029814;87;27807;-58
2022/01/03 02:27:04;;;;;;;10.30;4.22;;;;;;;9.33;67.45;99481.16;2065398;86;28504;-59
2022/01/03 02:30:10;;;;;;;8.08;4.85;;;;;;;9.25;67.56;99485.15;2030770;86;31858;-58
2022/01/03 02:33:12;;;;;;;6.28;4.12;;;;;;;9.21;67.69;99477.38;2065387;86;32692;-58
2022/01/03 02:36:15;;;;;;;7.90;4.47;;;;;;;9.15;67.83;99474.58;2030085;87;30798;-58
2022/01/03 02:39:17;;;;;;;10.30;4.75;;;;;;;9.10;68.03;99465.98;2069423;84;27852;-59
2022/01/03 02:42:23;;;;;;;7.45;3.87;;;;;;;9.05;68.15;99458.70;2133821;83;29214;-58
2022/01/03 02:45:25;;;;;;;8.05;4.83;;;;;;;9.01;68.28;99450.00;2144117;83;32024;-60
2022/01/03 02:48:27;;;;;;;7.60;4.30;;;;;;;8.99;68.39;99444.34;2144448;82;33434;-54
2022/01/03 02:51:29;;;;;;;9.23;4.37;;;;;;;8.98;68.52;99439.48;2118677;82;30170;-58
2022/01/03 02:54:31;;;;;;;7.92;4.60;;;;;;;8.96;68.58;99432.88;2113681;84;27688;-58
2022/01/03 02:57:39;;;;;;;7.75;5.03;;;;;;;8.97;68.70;99433.76;2108509;84;28682;-58
2022/01/03 03:00:49;;;;;;;9.18;4.65;;;;;;;8.97;68.76;99429.26;2108499;83;31882;-50
2022/01/03 03:03:52;;;;;;;8.20;4.85;;;;;;;8.99;68.87;99421.18;2109231;83;33040;-58
2022/01/03 03:06:53;;;;;;;10.23;5.15;;;;;;;9.04;68.97;99432.44;2107750;84;29882;-56
2022/01/03 03:09:56;;;;;;;9.13;4.90;;;;;;;9.08;69.04;99430.48;2117819;83;27713;-57
2022/01/03 03:12:57;;;;;;;8.78;5.00;;;;;;;9.14;69.07;99434.60;2141024;83;29345;-55
2022/01/03 03:16:00;;;;;;;7.83;4.78;;;;;;;9.19;69.21;99444.06;2141337;83;31555;-57
2022/01/03 03:19:02;;;;;;;8.50;4.87;;;;;;;9.25;69.38;99452.20;2140772;83;33404;-58
2022/01/03 03:22:04;;;;;;;7.50;5.03;;;;;;;9.28;69.60;99458.22;2107420;83;30184;-59
2022/01/03 03:25:10;;;;;;;9.08;4.85;;;;;;;9.33;69.83;99455.77;2107568;84;27670;-59
2022/01/03 03:28:15;;;;;;;10.43;4.53;;;;;;;9.35;70.16;99453.38;2107820;84;28679;-59
2022/01/03 03:31:18;;;;;;;8.48;4.62;;;;;;;9.35;70.58;99437.34;2131958;83;31046;-57
2022/01/03 03:34:22;;;;;;;6.20;4.22;;;;;;;9.35;70.82;99424.46;2141296;83;32973;-59
2022/01/03 03:37:24;;;;;;;7.00;4.60;;;;;;;9.34;71.05;99434.77;2141311;83;29125;-59
2022/01/03 03:40:26;;;;;;;7.50;4.75;;;;;;;9.32;71.37;99427.31;2127012;83;27627;-60
2022/01/03 03:43:30;;;;;;;8.70;5.15;;;;;;;9.30;71.56;99421.19;2107823;83;30017;-59
2022/01/03 03:46:32;;;;;;;11.10;4.77;;;;;;;9.29;71.79;99428.36;2107829;84;31424;-61
2022/01/03 03:49:34;;;;;;;13.13;5.17;;;;;;;9.27;71.94;99417.74;2128398;83;34099;-59
2022/01/03 03:52:36;;;;;;;8.18;4.45;;;;;;;9.26;72.18;99418.72;2141321;83;29260;-59
2022/01/03 03:55:38;;;;;;;12.58;5.10;;;;;;;9.25;72.29;99414.78;2140979;83;27711;-59
2022/01/03 03:58:40;;;;;;;9.60;4.42;;;;;;;9.24;72.38;99409.92;2130628;83;29892;-59
2022/01/03 04:01:42;;;;;;;8.53;5.42;;;;;;;9.23;72.59;99401.98;2107593;84;32218;-58
2022/01/03 04:04:43;;;;;;;12.07;5.62;;;;;;;9.22;72.67;99400.27;2107570;84;32777;-59
2022/01/03 04:07:46;;;;;;;7.78;5.58;;;;;;;9.20;72.85;99407.05;2107739;83;30438;-57
2022/01/03 04:10:47;;;;;;;12.82;4.78;;;;;;;9.17;72.89;99387.66;2141097;83;28213;-56
2022/01/03 04:13:49;;;;;;;8.98;5.35;;;;;;;9.14;73.08;99381.16;2118927;83;28616;-58
2022/01/03 04:16:51;;;;;;;8.18;4.97;;;;;;;9.11;73.09;99361.68;2141210;83;31639;-53
2022/01/03 04:19:53;;;;;;;8.48;4.40;;;;;;;9.10;73.29;99363.97;2140843;83;33633;-56
2022/01/03 04:22:55;;;;;;;10.50;5.25;;;;;;;9.10;73.36;99355.10;2139465;83;30487;-54
2022/01/03 04:25:57;;;;;;;10.38;6.05;;;;;;;9.09;73.44;99347.55;2141542;83;27700;-56
2022/01/03 04:28:59;;;;;;;9.43;4.35;;;;;;;9.06;73.46;99335.70;2141394;83;29069;-58
2022/01/03 04:32:01;;;;;;;8.55;5.53;;;;;;;9.05;73.48;99340.66;2128978;83;31035;-53
2022/01/03 04:35:04;;;;;;;6.53;4.08;;;;;;;8.99;73.52;99334.36;2107441;84;33878;-55
2022/01/03 04:38:06;;;;;;;6.92;3.52;;;;;;;8.97;73.68;99342.93;2107902;84;30152;-58
2022/01/03 04:41:10;;;;;;;9.40;4.58;;;;;;;8.94;73.69;99337.27;2110332;83;28338;-57
2022/01/03 04:44:11;;;;;;;6.85;4.15;;;;;;;8.95;73.77;99333.66;2141545;83;29238;-58
2022/01/03 04:47:13;;;;;;;6.22;3.37;;;;;;;8.95;73.86;99331.47;2141565;83;31604;-58
2022/01/03 04:50:16;;;;;;;5.30;3.50;;;;;;;8.94;73.86;99329.27;2141522;83;32984;-59
2022/01/03 04:53:18;;;;;;;10.35;3.33;;;;;;;8.97;73.93;99316.22;2115148;83;30634;-58
2022/01/03 04:56:19;;;;;;;4.70;3.10;;;;;;;8.99;73.99;99311.65;2106606;83;28235;-57
2022/01/03 04:59:21;;;;;;;4.00;2.72;;;;;;;9.02;73.96;99309.27;2100894;84;29960;-58
2022/01/03 05:02:23;;;;;;;4.25;2.60;;;;;;;9.03;73.94;99307.82;2085812;85;32289;-57
2022/01/03 05:05:25;;;;;;;4.72;2.10;;;;;;;9.05;73.95;99324.63;2016374;88;34397;-59
2022/01/03 05:08:26;;;;;;;4.83;2.02;;;;;;;9.06;73.93;99325.50;2015892;88;30444;-58
2022/01/03 05:11:28;;;;;;;4.22;1.70;;;;;;;9.07;73.87;99332.08;2069004;85;27640;-59
2022/01/03 05:14:30;;;;;;;3.77;1.55;;;;;;;9.10;73.70;99327.05;2086590;85;29863;-59
2022/01/03 05:17:32;;;;;;;1.95;1.37;;;;;;;9.12;73.66;99319.77;2086516;85;30822;-58
2022/01/03 05:20:35;;;;;;;1.65;1.35;;;;;;;9.16;73.54;99329.34;2086627;85;33785;-59
2022/01/03 05:23:39;;;;;;;1.65;1.10;;;;;;;9.19;73.49;99339.84;2061071;85;27779;-58
2022/01/03 05:26:43;;;;;;;3.50;1.40;;;;;;;9.22;73.38;99329.44;2060998;85;27735;-57
2022/01/03 05:29:46;;;;;;;3.37;1.10;;;;;;;9.25;73.32;99335.95;2086747;85;29253;-58
2022/01/03 05:32:47;;;;;;;4.90;1.77;;;;;;;9.27;73.20;99339.39;2086402;85;31415;-57
2022/01/03 05:35:49;;;;;;;2.45;1.30;;;;;;;9.30;73.14;99338.34;2086661;85;32979;-58
2022/01/03 05:38:51;;;;;;;1.15;1.02;;;;;;;9.33;73.09;99351.06;2086590;85;29747;-56
2022/01/03 05:41:53;;;;;;;1.75;1.40;;;;;;;9.35;73.06;99341.60;2086692;85;27617;-58
2022/01/03 05:44:55;;;;;;;2.00;1.57;;;;;;;9.36;72.98;99350.85;2086745;85;29096;-58
2022/01/03 05:47:57;;;;;;;1.65;1.22;;;;;;;9.38;72.87;99360.98;2086161;85;32120;-58
2022/01/03 05:50:59;;;;;;;1.85;1.00;;;;;;;9.40;72.87;99351.06;2086373;85;34451;-56
2022/01/03 05:54:01;;;;;;;1.20;1.10;;;;;;;9.40;72.79;99356.89;2086207;85;29398;-58
2022/01/03 05:57:03;;;;;;;1.95;1.17;;;;;;;9.40;72.70;99355.56;2096884;84;27697;-58
2022/01/03 06:00:11;;;;;;;1.45;1.00;;;;;;;9.40;72.71;99360.91;2118010;84;29501;-58
2022/01/03 06:03:14;;;;;;;3.35;1.57;;;;;;;9.40;72.70;99363.58;2115902;84;30817;-49
2022/01/03 06:06:24;;;;;;;3.58;1.32;;;;;;;9.38;72.57;99351.63;2117715;84;33936;-59
2022/01/03 06:09:23;;;;;;;2.58;1.35;;;;;;;9.36;72.51;99356.69;2116683;84;30791;-58
2022/01/03 06:12:25;;;;;;;1.57;1.20;;;;;;;9.40;72.52;99359.57;2116297;84;28307;-57
2022/01/03 06:15:26;;;;;;;4.15;1.32;;;;;;;9.38;72.42;99365.48;2115919;84;29112;-58
2022/01/03 06:18:30;;;;;;;1.40;0.82;;;;;;;9.38;72.37;99369.00;2116157;84;31764;-57
2022/01/03 06:21:32;;;;;;;4.50;1.60;;;;;;;9.38;72.39;99368.16;2117361;84;33627;-45
2022/01/03 06:24:34;;;;;;;4.33;1.82;;;;;;;9.38;72.25;99354.79;2118737;84;29564;-59
2022/01/03 06:27:37;;;;;;;6.45;2.98;;;;;;;9.38;72.20;99360.98;2116225;84;27657;-58
2022/01/03 06:30:51;;;;;;;8.80;3.87;;;;;;;9.39;72.16;99356.51;2116834;84;28665;-56
2022/01/03 06:33:46;;;;;;;9.13;2.83;;;;;;;9.38;72.09;99358.80;2113612;84;31031;-58
2022/01/03 06:36:48;;;;;;;7.17;1.90;;;;;;;9.39;72.02;99364.04;2118926;84;33969;-56
2022/01/03 06:39:50;;;;;;;11.60;3.90;;;;;;;9.40;71.95;99368.92;2118159;84;29895;-57
2022/01/03 06:42:53;;;;;;;7.83;3.00;;;;;;;9.40;71.82;99359.57;2115872;84;27702;-55
2022/01/03 06:45:57;;;;;;;7.72;2.55;;;;;;;9.40;71.66;99371.11;2115914;84;28819;-57
2022/01/03 06:49:03;;;;;;;7.92;1.92;;;;;;;9.42;71.62;99373.22;2115607;84;34735;-57
2022/01/03 06:52:06;;;;;;;4.72;1.85;;;;;;;9.45;71.52;99383.34;2118118;84;33034;-57
2022/01/03 06:55:10;;;;;;;3.30;1.77;;;;;;;9.47;71.44;99391.65;2118292;84;30549;-56
2022/01/03 06:58:12;;;;;;;6.70;2.17;;;;;;;9.47;71.28;99386.80;2109263;82;27733;-56
2022/01/03 07:01:15;;;;;;;4.92;1.70;;;;;;;9.48;71.15;99400.05;2084949;84;29427;-57
2022/01/03 07:04:18;;;;;;;2.50;1.45;;;;;;;9.47;71.05;99403.68;2067615;86;31697;-57
2022/01/03 07:07:24;;;;;;;2.22;1.20;;;;;;;9.48;70.63;99401.88;2067222;86;34054;-52
2022/01/03 07:10:27;;;;;;;7.55;2.00;;;;;;;9.47;70.84;99399.67;2075233;84;30036;-57
2022/01/03 07:13:39;;;;;;;2.62;1.30;;;;;;;9.48;70.72;99404.06;2102446;84;27683;-57
2022/01/03 07:19:59;;;;;;;4.10;1.10;;;;;;;9.41;70.32;99386.20;2097553;84;31850;-57
2022/01/03 07:23:01;;;;;;;4.47;1.15;;;;;;;9.49;70.32;99411.63;2097147;84;33990;-54
2022/01/03 07:26:06;;;;;;;7.50;1.10;;;;;;;9.49;70.18;99410.29;2096785;84;29410;-56
2022/01/03 07:29:19;;;;;;;2.85;1.02;;;;;;;9.50;70.15;99419.55;2099904;84;27698;-57
2022/01/03 07:32:27;;;;;;;3.27;1.25;;;;;;;9.52;70.01;99420.31;2101706;84;27765;-58
2022/01/03 07:35:29;;;;;;;2.58;0.98;;;;;;;9.53;69.73;99412.68;2102741;84;31069;-57
2022/01/03 07:38:33;;;;;;;2.55;1.12;;;;;;;9.57;69.87;99420.03;2100071;84;34188;-57
2022/01/03 07:41:35;;;;;;;5.33;1.30;;;;;;;9.60;69.59;99427.03;2097098;84;29344;-56
2022/01/03 07:44:37;;;;;;;4.95;1.20;;;;;;;9.62;69.42;99428.66;2096883;84;27692;-57
2022/01/03 07:47:43;;;;;;;4.30;1.20;;;;;;;9.66;69.41;99430.66;2097136;84;30797;-57
2022/01/03 07:50:45;;;;;;;2.20;1.00;;;;;;;9.71;69.24;99426.75;2099604;84;32247;-58
2022/01/03 07:53:49;;;;;;;4.60;1.47;;;;;;;9.76;69.18;99439.88;2096331;84;29895;-46
2022/01/03 07:56:52;;;;;;;4.62;1.42;;;;;;;9.83;68.61;99435.85;2097002;82;29901;-57
2022/01/03 07:59:56;;;;;;;4.85;1.10;;;;;;;9.93;68.58;99440.66;2118320;84;27654;-57
2022/01/03 08:03:00;;;;;;;6.37;1.32;;;;;;;10.04;68.46;99439.52;2118564;84;27710;-56
2022/01/03 08:06:06;;;;;;;3.67;1.07;;;;;;;10.15;68.28;99445.55;2118355;84;28039;-57
2022/01/03 08:09:08;;;;;;;3.85;1.27;;;;;;;10.23;68.16;99436.55;2117246;84;33077;-57
2022/01/03 08:12:12;;;;;;;4.65;1.30;;;;;;;10.26;67.83;99442.22;2115954;84;29784;-57
2022/01/03 08:15:15;;;;;;;4.47;1.32;;;;;;;10.28;67.71;99438.94;2116238;84;27606;-56
2022/01/03 08:18:17;;;;;;;4.60;1.12;;;;;;;10.36;67.68;99446.03;2116265;84;29774;-54
2022/01/03 08:21:24;;;;;;;2.47;0.90;;;;;;;10.41;67.65;99452.45;2116554;83;31637;-59
2022/01/03 08:24:28;;;;;;;7.53;2.12;;;;;;;10.45;67.39;99452.66;2111848;84;34148;-57
2022/01/03 08:27:31;;;;;;;8.93;2.02;;;;;;;10.47;67.29;99458.78;2111769;84;30553;-59
2022/01/03 08:30:35;;;;;;;6.03;1.52;;;;;;;10.48;67.27;99458.67;2079894;84;28279;-51
2022/01/03 08:33:38;;;;;;;3.70;1.25;;;;;;;10.50;67.32;99466.63;2075363;85;29153;-58
2022/01/03 08:36:40;;;;;;;8.85;1.98;;;;;;;10.51;67.22;99475.50;2076554;85;31142;-56
2022/01/03 08:39:42;;;;;;;9.45;3.20;;;;;;;10.55;67.38;99471.69;2081257;84;34135;-55
2022/01/03 08:42:44;;;;;;;11.65;3.17;;;;;;;10.59;67.03;99474.56;2079558;84;29367;-59
2022/01/03 08:45:46;;;;;;;10.75;2.42;;;;;;;10.61;67.00;99480.19;2104113;84;27711;-58
2022/01/03 08:48:48;;;;;;;7.92;2.40;;;;;;;10.64;66.72;99476.45;2088652;84;29124;-48
2022/01/03 08:51:50;;;;;;;8.13;1.72;;;;;;;10.65;66.76;99487.55;2102681;84;31043;-57
2022/01/03 08:54:52;;;;;;;8.43;2.67;;;;;;;10.67;66.83;99480.77;2164100;82;32987;-50
2022/01/03 08:57:54;;;;;;;9.03;1.90;;;;;;;10.71;66.57;99501.90;2164473;81;30160;-47
2022/01/03 09:00:58;;;;;;;7.10;2.08;;;;;;;10.77;66.58;99477.38;2147208;82;28520;-49
2022/01/03 09:04:00;;;;;;;6.30;2.30;;;;;;;10.84;66.44;99491.73;2147316;82;28679;-57
2022/01/03 09:07:03;;;;;;;9.58;2.80;;;;;;;10.93;66.04;99490.67;2147645;82;31031;-47
2022/01/03 09:10:07;;;;;;;5.72;2.15;;;;;;;11.03;65.99;99494.96;2114582;82;34423;-52
2022/01/03 09:13:09;;;;;;;9.10;1.90;;;;;;;11.12;65.69;99501.55;2107694;84;30166;-52
2022/01/03 09:16:11;;;;;;;5.55;1.60;;;;;;;11.14;65.70;99507.67;2139117;83;28093;-51
2022/01/03 09:19:12;;;;;;;8.85;2.15;;;;;;;11.21;65.72;99502.27;2122840;83;29039;-59
2022/01/03 09:22:19;;;;;;;7.45;1.80;;;;;;;11.28;65.37;99519.31;2105900;84;31835;-60
2022/01/03 09:31:41;;;;;;;3.40;1.47;;;;;;;11.25;64.68;99522.57;2095807;83;28355;-61
2022/01/03 09:34:43;;;;;;;10.18;2.10;;;;;;;11.26;64.75;99526.09;2098355;84;29071;-58
2022/01/03 09:37:45;;;;;;;6.90;1.92;;;;;;;11.28;64.63;99523.33;2106136;84;31458;-59
2022/01/03 09:40:48;;;;;;;8.43;2.67;;;;;;;11.31;64.46;99511.92;2105450;84;33005;-63
2022/01/03 09:43:54;;;;;;;4.53;1.55;;;;;;;11.42;64.49;99510.38;2104379;84;30535;-57
2022/01/03 09:47:00;;;;;;;7.60;1.80;;;;;;;11.60;64.35;99526.56;2113990;83;27668;-64
2022/01/03 09:50:02;;;;;;;11.08;2.27;;;;;;;11.78;64.40;99522.27;2111859;83;28882;-50
2022/01/03 09:53:06;;;;;;;5.15;1.42;;;;;;;11.93;64.34;99524.41;2109448;83;32243;-58
2022/01/03 09:56:09;;;;;;;7.25;1.57;;;;;;;12.07;63.86;99514.12;2103482;83;33186;-58
2022/01/03 09:59:12;;;;;;;3.25;1.57;;;;;;;12.16;63.82;99517.49;2103225;83;30519;-64
2022/01/03 10:02:23;;;;;;;7.83;1.70;;;;;;;12.23;63.67;99520.15;2103741;84;27817;-65
2022/01/03 10:05:21;;;;;;;7.12;2.00;;;;;;;12.25;63.16;99528.92;2111599;82;28666;-57
2022/01/03 10:08:23;;;;;;;5.40;1.70;;;;;;;12.25;63.46;99527.59;2110397;84;31772;-48
2022/01/03 10:11:26;;;;;;;8.63;2.70;;;;;;;12.25;63.29;99525.40;2109969;83;33424;-58
2022/01/03 10:14:30;;;;;;;5.05;1.50;;;;;;;12.28;63.34;99526.53;2110260;84;30191;-59
2022/01/03 10:17:41;;;;;;;3.70;1.80;;;;;;;12.35;63.12;99515.72;2110825;83;27626;-61
2022/01/03 10:20:45;;;;;;;6.92;2.55;;;;;;;12.36;62.53;99531.38;2110437;83;29801;-57
2022/01/03 10:23:58;;;;;;;8.70;3.90;;;;;;;12.38;62.84;99527.60;2125029;83;31195;-54
2022/01/03 10:26:58;;;;;;;11.43;4.00;;;;;;;12.46;62.67;99525.72;2142858;82;34085;-62
2022/01/03 10:30:01;;;;;;;11.75;6.25;;;;;;;12.54;62.30;99530.09;2143658;83;30241;-63
2022/01/03 10:33:06;;;;;;;8.10;4.05;;;;;;;12.55;62.14;99524.22;2143865;82;27685;-61
2022/01/03 10:36:11;;;;;;;5.58;3.80;;;;;;;12.52;62.19;99534.70;2144138;82;28653;-66
2022/01/03 10:39:21;;;;;;;11.65;3.98;;;;;;;12.50;62.25;99527.23;2143753;82;31032;-61
2022/01/03 10:42:24;;;;;;;3.02;1.87;;;;;;;12.45;61.96;99523.53;2143951;83;33330;-52
2022/01/03 10:45:29;;;;;;;7.83;2.87;;;;;;;12.40;61.67;99536.91;2141097;83;30434;-58
2022/01/03 10:48:33;;;;;;;;;;;;;;;12.39;62.04;99533.85;2113324;83;27657;-53
2022/01/03 10:51:35;;;;;;;8.15;2.02;;;;;;;12.36;61.55;99527.34;2110379;84;29617;-62
2022/01/03 10:54:37;;;;;;;9.13;2.40;;;;;;;12.35;61.82;99532.34;2110418;83;31853;-63
2022/01/03 10:58:01;;;;;;;8.75;2.00;;;;;;;12.38;61.73;99524.07;2125128;78;33647;-64
2022/01/03 11:01:02;;;;;;;6.78;3.27;;;;;;;12.39;61.46;99533.85;2136229;82;29959;-66
2022/01/03 11:04:04;;;;;;;7.83;3.52;;;;;;;12.43;61.66;99532.64;2109982;83;27769;-66
2022/01/03 11:10:47;;;;;;;11.75;4.92;;;;;;;12.51;61.46;99530.77;2093503;83;30909;-63
2022/01/03 11:13:49;;;;;;;21.48;9.33;;;;;;;12.48;61.20;99523.80;2055764;84;33940;-62
2022/01/03 11:16:53;;;;;;;10.20;2.60;;;;;;;12.41;61.28;99527.89;2112708;83;29441;-63
2022/01/03 11:19:59;;;;;;;10.53;3.15;;;;;;;12.36;60.96;99525.50;2123827;83;27724;-63
2022/01/03 11:23:00;;;;;;;7.25;2.50;;;;;;;12.30;60.87;99527.29;2118467;82;28750;-64
2022/01/03 11:26:12;;;;;;;6.35;1.87;;;;;;;12.19;61.01;99533.87;2092403;83;32427;-64
2022/01/03 11:29:15;;;;;;;8.60;2.22;;;;;;;12.10;60.74;99529.98;2121772;82;33129;-63
2022/01/03 11:32:19;;;;;;;8.40;2.33;;;;;;;12.02;60.74;99525.14;2119574;82;27930;-67
2022/01/03 11:35:21;;;;;;;7.97;2.20;;;;;;;11.98;61.09;99514.23;2133203;82;27717;-61
2022/01/03 11:38:23;;;;;;;6.55;2.58;;;;;;;11.95;60.82;99509.91;2107268;83;29914;-64
2022/01/03 11:41:27;;;;;;;9.10;2.12;;;;;;;11.97;60.79;99505.80;2139986;82;32393;-70
2022/01/03 11:44:31;;;;;;;16.90;10.98;;;;;;;11.98;60.64;99516.45;2090567;83;33661;-65
2022/01/03 11:47:33;;;;;;;12.98;4.15;;;;;;;11.96;60.95;99510.29;2127186;82;29345;-65
2022/01/03 11:50:37;;;;;;;10.23;3.02;;;;;;;11.97;60.61;99517.88;2092605;84;27726;-60
2022/01/03 11:53:48;;;;;;;11.05;3.10;;;;;;;11.94;60.31;99514.90;2116359;83;29662;-60
2022/01/03 11:57:41;;;;;;;9.65;2.52;;;;;;;11.93;60.71;99515.86;2131124;83;31971;-61
2022/01/03 12:03:52;;;;;;;7.15;2.90;;;;;;;11.82;60.64;99512.59;2131551;83;29327;-64
2022/01/03 12:07:08;;;;;;;15.88;5.12;;;;;;;11.82;60.96;99521.98;2080199;84;27785;-60
2022/01/03 12:10:11;;;;;;;15.10;4.45;;;;;;;11.85;60.72;99523.59;2093970;85;29708;-62
2022/01/03 12:13:14;;;;;;;14.93;5.55;;;;;;;11.81;60.40;99518.05;2134389;83;31755;-63
2022/01/03 12:16:21;;;;;;;8.95;2.92;;;;;;;11.75;60.59;99523.84;2134357;83;28730;-61
2022/01/03 12:19:42;;;;;;;13.45;2.92;;;;;;;11.63;60.28;99524.17;2128375;83;30468;-65
2022/01/03 12:22:54;;;;;;;8.10;2.58;;;;;;;11.50;60.66;99538.38;2099731;84;27683;-62
2022/01/03 12:26:12;;;;;;;7.10;2.45;;;;;;;11.39;60.87;99539.11;2131547;83;29451;-63
2022/01/03 12:29:14;;;;;;;10.98;3.15;;;;;;;11.29;60.80;99541.14;2087377;85;31407;-62
2022/01/03 12:32:16;;;;;;;10.03;2.62;;;;;;;11.19;60.91;99537.70;2099579;84;34254;-66
2022/01/03 12:35:22;;;;;;;13.00;3.30;;;;;;;11.16;61.15;99534.37;2131606;83;30116;-68
2022/01/03 12:38:29;;;;;;;9.43;3.58;;;;;;;11.13;61.18;99540.80;2131779;83;27636;-65
2022/01/03 12:41:40;;;;;;;;;;;;;;;11.10;61.33;99531.61;2133840;83;28662;-61
2022/01/03 12:44:49;;;;;;;16.77;7.17;;;;;;;11.12;61.22;99535.05;2131328;83;31065;-63
2022/01/03 12:47:51;;;;;;;18.90;6.80;;;;;;;11.14;61.60;99534.48;2131774;83;34174;-61
2022/01/03 12:51:03;;;;;;;10.88;4.35;;;;;;;11.21;61.42;99531.77;2132294;83;30049;-61
2022/01/03 12:54:07;;;;;;;14.95;3.70;;;;;;;11.26;61.44;99542.19;2131483;83;27714;-63
2022/01/03 12:57:15;;;;;;;11.87;4.50;;;;;;;11.30;61.27;99543.71;2131990;83;29503;-63
2022/01/03 13:00:44;;;;;;;13.13;3.25;;;;;;;11.32;61.20;99544.48;2131576;83;31050;-64
2022/01/03 13:03:51;;;;;;;10.32;2.75;;;;;;;11.35;61.16;99535.36;2052887;86;33080;-61
2022/01/03 13:07:00;;;;;;;10.68;3.98;;;;;;;11.39;61.00;99537.77;2088843;85;29491;-63
2022/01/03 13:10:06;;;;;;;10.95;3.62;;;;;;;11.44;61.20;99530.75;2072925;85;27761;-62
2022/01/03 13:13:14;;;;;;;7.85;2.83;;;;;;;11.45;60.78;99541.86;2117206;83;28474;-68
2022/01/03 13:16:36;;;;;;;14.15;2.55;;;;;;;11.45;60.74;99533.81;2079854;85;32025;-63
2022/01/03 13:19:40;;;;;;;9.40;3.22;;;;;;;11.46;60.63;99546.73;2081731;85;32996;-63
2022/01/03 13:22:43;;;;;;;8.93;3.52;;;;;;;11.44;60.74;99552.67;2100107;83;29389;-63
2022/01/03 13:25:45;;;;;;;9.13;3.27;;;;;;;11.43;60.18;99537.54;2090368;85;27799;-64
2022/01/03 13:28:50;;;;;;;10.68;3.47;;;;;;;11.43;60.64;99548.27;2122033;83;28629;-60
2022/01/03 13:31:54;;;;;;;8.08;2.60;;;;;;;11.45;60.67;99548.57;2113646;83;31095;-61
2022/01/03 13:34:59;;;;;;;10.88;2.30;;;;;;;11.47;60.41;99549.33;2078907;85;33928;-60
2022/01/03 13:38:17;;;;;;;11.60;3.30;;;;;;;11.49;60.12;99547.88;2082110;84;29333;-61
2022/01/03 13:41:20;;;;;;;10.18;2.75;;;;;;;11.49;60.07;99555.92;2107826;83;27736;-69
2022/01/03 13:51:21;;;;;;;7.12;2.33;;;;;;;11.45;60.15;99556.62;2131437;83;34242;-66
2022/01/03 13:54:32;;;;;;;7.78;2.58;;;;;;;11.43;60.18;99562.55;2131319;83;30052;-64
2022/01/03 13:57:40;;;;;;;5.55;2.33;;;;;;;11.43;60.04;99568.38;2131598;83;28212;-63
2022/01/03 14:00:45;;;;;;;;;;;;;;;11.42;60.09;99566.69;2137044;83;28681;-62
2022/01/03 14:03:47;;;;;;;9.08;2.62;;;;;;;11.38;60.01;99570.03;2138028;83;31030;-62
2022/01/03 14:07:08;;;;;;;10.82;2.70;;;;;;;11.28;59.92;99574.28;2137602;83;33808;-61
2022/01/03 14:10:20;;;;;;;14.70;3.00;;;;;;;11.18;59.96;99582.05;2119008;83;29152;-63
2022/01/03 14:13:50;;;;;;;16.42;3.77;;;;;;;11.06;59.98;99579.20;2119041;84;28074;-61
2022/01/03 14:17:04;;;;;;;10.28;3.00;;;;;;;10.93;60.10;99583.59;2118808;84;29525;-61
2022/01/03 14:20:12;;;;;;;13.48;2.55;;;;;;;10.78;60.05;99575.55;2095898;84;30539;-61
2022/01/03 14:23:17;;;;;;;7.12;2.50;;;;;;;10.65;60.19;99581.30;2118995;84;32924;-62
2022/01/03 14:26:31;;;;;;;8.00;2.92;;;;;;;10.50;60.22;99576.42;2097922;84;30652;-60
2022/01/03 14:29:37;;;;;;;15.53;5.05;;;;;;;10.32;60.26;99576.55;2118949;84;28141;-61
2022/01/03 14:32:41;;;;;;;11.00;2.87;;;;;;;10.19;60.29;99574.20;2097884;84;28819;-65
2022/01/03 14:35:44;;;;;;;7.10;2.62;;;;;;;10.04;60.44;99570.15;2098136;84;31111;-62
2022/01/03 14:38:50;;;;;;;6.05;2.10;;;;;;;9.92;60.54;99572.71;2098202;84;33082;-66
2022/01/03 14:41:59;;;;;;;11.78;3.67;;;;;;;9.77;60.53;99579.31;2074151;84;30141;-62
2022/01/03 14:45:20;;;;;;;21.50;8.25;;;;;;;9.65;60.58;99577.36;2123127;83;27787;-66
2022/01/03 14:48:23;;;;;;;9.48;3.50;;;;;;;9.54;60.74;99576.17;2161884;82;28846;-62
2022/01/03 14:51:41;;;;;;;29.98;7.60;;;;;;;9.45;60.81;99573.16;2165649;82;32513;-62
2022/01/03 14:54:49;;;;;;;15.28;4.67;;;;;;;9.36;60.80;99574.54;2138042;82;33015;-60
2022/01/03 14:57:52;;;;;;;9.10;3.00;;;;;;;9.27;60.93;99570.09;2136645;83;29731;-60
2022/01/03 15:00:55;;;;;;;7.90;3.55;;;;;;;9.20;61.07;99575.41;2069463;85;27638;-61